Terminal Aerodrome Forecast
Issued by NWS

Home | Current Version | Previous Version | Text Only | Print | Product List | Glossary On
Versions: 1 2 3 4 5 6 7 8 9 10 11 12 13 14
000
FTUS46 KMTR 142300
TAFSJC
TAF
KSJC 142338Z 1500/1524 29011KT P6SM FEW160
     FM150300 30005KT P6SM SCT250
     FM151300 VRB04KT P6SM BKN012
     FM151700 00000KT P6SM SCT012
     FM152000 29010KT P6SM FEW180=

USA.gov is the U.S. government's official web portal to all federal, state and local government web resources and services.